createdAt,value
2022-08-17T00:00:10.992Z,18.84
2022-08-17T00:02:56.291Z,18.79
2022-08-17T00:05:22.552Z,18.78
2022-08-17T00:07:48.882Z,18.80
2022-08-17T00:10:15.120Z,18.84
2022-08-17T00:12:44.538Z,18.88
2022-08-17T00:15:10.897Z,18.95
2022-08-17T00:17:37.073Z,18.89
2022-08-17T00:20:03.292Z,18.88
2022-08-17T00:22:34.759Z,18.89
2022-08-17T00:25:02.185Z,18.87
2022-08-17T00:27:28.397Z,18.85
2022-08-17T00:29:54.629Z,18.87
2022-08-17T00:33:14.004Z,18.90
2022-08-17T00:35:07.027Z,18.98
2022-08-17T00:37:33.190Z,18.95
2022-08-17T00:39:59.510Z,18.91
2022-08-17T00:42:30.784Z,18.85
2022-08-17T00:44:57.363Z,18.81
2022-08-17T00:47:23.609Z,18.76
2022-08-17T00:49:49.772Z,18.73
2022-08-17T00:52:15.997Z,18.65
2022-08-17T00:54:42.533Z,18.63
2022-08-17T00:57:08.850Z,18.66
2022-08-17T00:59:35.040Z,18.60
2022-08-17T01:02:01.232Z,18.57
2022-08-17T01:04:27.431Z,18.57
2022-08-17T01:06:53.629Z,18.51
2022-08-17T01:09:19.834Z,18.56
2022-08-17T01:11:46.016Z,18.50
2022-08-17T01:14:12.184Z,18.51
2022-08-17T01:16:38.367Z,18.46
2022-08-17T01:19:04.537Z,18.46
2022-08-17T01:21:30.896Z,18.45
2022-08-17T01:23:57.095Z,18.34
2022-08-17T01:26:23.301Z,18.32
2022-08-17T01:28:53.876Z,18.32
2022-08-17T01:31:21.383Z,18.20
2022-08-17T01:33:47.572Z,18.18
2022-08-17T01:36:13.777Z,18.23
2022-08-17T01:38:39.965Z,18.09
2022-08-17T01:41:06.167Z,18.07
2022-08-17T01:43:32.348Z,18.11
2022-08-17T01:46:03.738Z,18.12
2022-08-17T01:48:30.284Z,18.13
2022-08-17T01:50:58.766Z,18.07
2022-08-17T01:53:24.952Z,18.14
2022-08-17T01:55:51.131Z,18.21
2022-08-17T01:58:20.231Z,18.13
2022-08-17T02:01:00.762Z,18.08
2022-08-17T02:03:36.644Z,18.02
2022-08-17T02:06:02.825Z,18.05
2022-08-17T02:08:37.257Z,18.04
2022-08-17T02:11:05.570Z,18.01
2022-08-17T02:13:37.617Z,18.01
2022-08-17T02:16:03.792Z,17.93
2022-08-17T02:18:40.339Z,17.92
2022-08-17T02:21:06.515Z,17.88
2022-08-17T02:23:32.697Z,17.83
2022-08-17T02:25:58.871Z,17.81
2022-08-17T02:28:25.050Z,17.81
2022-08-17T02:31:01.383Z,17.81
2022-08-17T02:33:43.089Z,17.91
2022-08-17T02:36:09.897Z,17.83
2022-08-17T02:38:36.091Z,17.75
2022-08-17T02:41:02.278Z,17.75
2022-08-17T02:43:28.444Z,17.75
2022-08-17T02:45:54.624Z,17.76
2022-08-17T02:48:30.773Z,17.68
2022-08-17T02:50:58.080Z,17.69
2022-08-17T02:53:24.259Z,17.64
2022-08-17T02:55:51.990Z,17.48
2022-08-17T02:58:18.873Z,17.32
2022-08-17T03:01:01.080Z,17.20
2022-08-17T03:03:27.243Z,17.27
2022-08-17T03:05:53.634Z,17.38
2022-08-17T03:08:19.838Z,17.33
2022-08-17T03:10:46.072Z,17.33
2022-08-17T03:13:12.288Z,17.38
2022-08-17T03:15:38.590Z,17.37
2022-08-17T03:18:14.375Z,17.39
2022-08-17T03:20:45.587Z,17.46
2022-08-17T03:23:11.779Z,17.48
2022-08-17T03:25:37.947Z,17.44
2022-08-17T03:28:04.865Z,17.48
2022-08-17T03:30:31.091Z,17.50
2022-08-17T03:32:57.301Z,17.53
2022-08-17T03:35:23.548Z,17.58
2022-08-17T03:38:00.890Z,17.60
2022-08-17T03:40:55.305Z,17.61
2022-08-17T03:43:13.582Z,17.57
2022-08-17T03:45:39.809Z,17.52
2022-08-17T03:48:06.019Z,17.50
2022-08-17T03:50:32.208Z,17.45
2022-08-17T03:52:58.489Z,17.55
2022-08-17T03:55:24.780Z,17.49
2022-08-17T03:58:02.615Z,17.59
2022-08-17T04:00:28.819Z,17.43
2022-08-17T04:02:54.969Z,17.51
2022-08-17T04:05:21.146Z,17.53
2022-08-17T04:07:47.335Z,17.61
2022-08-17T04:10:13.505Z,17.75
2022-08-17T04:12:39.700Z,17.90
2022-08-17T04:15:05.872Z,18.09
2022-08-17T04:17:32.069Z,18.30
2022-08-17T04:19:58.431Z,18.31
2022-08-17T04:22:32.945Z,18.44
2022-08-17T04:25:00.331Z,18.46
2022-08-17T04:27:26.541Z,18.47
2022-08-17T04:29:55.301Z,18.42
2022-08-17T04:32:59.183Z,18.40
2022-08-17T04:35:08.098Z,18.41
2022-08-17T04:37:34.280Z,18.41
2022-08-17T04:40:03.971Z,18.42
2022-08-17T04:42:30.580Z,18.43
2022-08-17T04:44:56.787Z,18.46
2022-08-17T04:47:22.984Z,18.49
2022-08-17T04:49:49.158Z,18.56
2022-08-17T04:52:32.338Z,18.64
2022-08-17T04:55:01.843Z,18.76
2022-08-17T04:57:28.084Z,18.84
2022-08-17T04:59:54.243Z,18.89
2022-08-17T05:02:20.478Z,18.95
2022-08-17T05:04:46.661Z,19.01
2022-08-17T05:07:12.869Z,19.06
2022-08-17T05:09:39.114Z,19.13
2022-08-17T05:12:05.271Z,19.26
2022-08-17T05:14:37.725Z,19.29
2022-08-17T05:17:07.227Z,19.34
2022-08-17T05:19:37.424Z,19.38
2022-08-17T05:24:53.636Z,19.52
2022-08-17T05:27:21.723Z,19.55
2022-08-17T05:29:49.714Z,19.55
2022-08-17T05:32:39.084Z,19.56
2022-08-17T05:35:02.098Z,19.64
2022-08-17T05:40:19.018Z,19.89
2022-08-17T05:42:45.192Z,20.06
2022-08-17T05:45:11.382Z,20.23
2022-08-17T05:47:38.666Z,20.42
2022-08-17T05:50:09.841Z,20.61
2022-08-17T05:52:36.228Z,20.81
2022-08-17T05:55:02.625Z,21.07
2022-08-17T05:57:28.856Z,21.22
2022-08-17T05:59:55.580Z,21.31
2022-08-17T06:02:21.945Z,21.34
2022-08-17T06:04:48.233Z,21.40
2022-08-17T06:07:14.533Z,21.45
2022-08-17T06:09:40.747Z,21.39
2022-08-17T06:12:06.989Z,21.26
2022-08-17T06:14:40.637Z,21.12
2022-08-17T06:17:06.882Z,20.96
2022-08-17T06:19:33.090Z,20.93
2022-08-17T06:21:59.321Z,20.93
2022-08-17T06:24:26.345Z,20.94
2022-08-17T06:26:52.568Z,20.97
2022-08-17T06:29:19.097Z,21.04
2022-08-17T06:31:45.398Z,21.06
2022-08-17T06:34:11.744Z,21.05
2022-08-17T06:36:37.980Z,21.05
2022-08-17T06:39:04.165Z,21.10
2022-08-17T06:41:30.480Z,21.13
2022-08-17T06:43:56.731Z,21.15
2022-08-17T06:46:22.925Z,21.13
2022-08-17T06:48:49.181Z,21.17
2022-08-17T06:51:15.416Z,21.19
2022-08-17T06:53:41.635Z,21.20
2022-08-17T06:56:07.860Z,21.24
2022-08-17T06:58:34.141Z,21.26
2022-08-17T07:01:00.342Z,21.31
2022-08-17T07:03:26.563Z,21.33
2022-08-17T07:05:52.729Z,21.33
2022-08-17T07:08:18.925Z,21.38
2022-08-17T07:10:45.126Z,21.37
2022-08-17T07:13:11.308Z,21.28
2022-08-17T07:15:37.521Z,21.26
2022-08-17T07:18:03.829Z,21.26
2022-08-17T07:20:30.065Z,21.17
2022-08-17T07:23:00.007Z,21.20
2022-08-17T07:25:26.817Z,21.21
2022-08-17T07:27:53.068Z,21.23
2022-08-17T07:30:19.242Z,21.33
2022-08-17T07:32:45.457Z,21.31
2022-08-17T07:35:11.777Z,21.33
2022-08-17T07:37:38.017Z,21.37
2022-08-17T07:40:16.309Z,21.36
2022-08-17T07:42:46.681Z,21.37
2022-08-17T07:45:12.992Z,21.47
2022-08-17T07:47:39.198Z,21.59
2022-08-17T07:50:05.425Z,21.59
2022-08-17T07:52:50.843Z,21.65
2022-08-17T07:55:17.787Z,21.78
2022-08-17T07:57:44.068Z,21.78
2022-08-17T08:00:13.485Z,21.83
2022-08-17T08:02:42.668Z,21.89
2022-08-17T08:05:09.030Z,21.93
2022-08-17T08:07:36.353Z,21.93
2022-08-17T08:10:02.534Z,21.99
2022-08-17T08:12:33.703Z,21.99
2022-08-17T08:15:00.155Z,22.01
2022-08-17T08:17:26.367Z,21.99
2022-08-17T08:19:52.837Z,21.98
2022-08-17T08:22:19.025Z,21.95
2022-08-17T08:24:45.274Z,21.97
2022-08-17T08:27:11.549Z,22.00
2022-08-17T08:29:37.724Z,22.05
2022-08-17T08:32:03.919Z,22.08
2022-08-17T08:35:00.735Z,22.13
2022-08-17T08:37:22.640Z,22.17
2022-08-17T08:39:51.346Z,22.18
2022-08-17T08:42:17.592Z,22.09
2022-08-17T08:45:00.064Z,22.05
2022-08-17T08:47:29.955Z,21.98
2022-08-17T08:50:04.839Z,22.00
2022-08-17T08:52:31.702Z,22.00
2022-08-17T08:54:57.907Z,22.04
2022-08-17T08:57:28.033Z,22.04
2022-08-17T08:59:59.190Z,21.94
2022-08-17T09:02:25.372Z,21.90
2022-08-17T09:05:13.318Z,21.87
2022-08-17T09:07:37.773Z,21.95
2022-08-17T09:10:03.984Z,21.96
2022-08-17T09:12:30.204Z,22.04
2022-08-17T09:14:56.386Z,22.19
2022-08-17T09:17:22.597Z,22.28
2022-08-17T09:19:48.833Z,22.41
2022-08-17T09:22:15.014Z,22.53
2022-08-17T09:24:41.208Z,22.63
2022-08-17T09:27:07.438Z,22.72
2022-08-17T09:29:33.707Z,22.77
2022-08-17T09:31:59.911Z,22.75
2022-08-17T09:34:31.979Z,22.97
2022-08-17T09:36:59.513Z,22.83
2022-08-17T09:39:25.746Z,22.89
2022-08-17T09:41:51.936Z,22.96
2022-08-17T09:44:23.103Z,22.86
2022-08-17T09:46:50.029Z,22.83
2022-08-17T09:49:16.231Z,22.92
2022-08-17T09:51:42.426Z,23.07
2022-08-17T09:54:37.083Z,23.17
2022-08-17T09:57:18.141Z,23.30
2022-08-17T09:59:40.937Z,23.44
2022-08-17T10:02:08.087Z,23.48
2022-08-17T10:04:39.514Z,23.42
2022-08-17T10:07:05.694Z,23.32
2022-08-17T10:09:31.874Z,23.22
2022-08-17T10:11:58.761Z,23.03
2022-08-17T10:14:36.394Z,22.92
2022-08-17T10:17:04.356Z,22.82
2022-08-17T10:19:30.569Z,22.78
2022-08-17T10:22:00.958Z,22.76
2022-08-17T10:24:27.793Z,22.74
2022-08-17T10:26:56.801Z,22.63
2022-08-17T10:29:23.644Z,22.56
2022-08-17T10:31:53.078Z,22.52
2022-08-17T10:34:19.311Z,22.48
2022-08-17T10:36:45.513Z,22.50
2022-08-17T10:39:11.685Z,22.41
2022-08-17T10:41:40.307Z,22.40
2022-08-17T10:44:39.095Z,22.48
2022-08-17T10:46:52.962Z,22.53
2022-08-17T10:49:19.148Z,22.54
2022-08-17T10:51:45.335Z,22.52
2022-08-17T10:54:12.784Z,22.57
2022-08-17T10:56:38.975Z,22.64
2022-08-17T10:59:05.179Z,22.71
2022-08-17T11:01:31.370Z,22.80
2022-08-17T11:03:57.546Z,22.91
2022-08-17T11:06:23.764Z,23.03
2022-08-17T11:08:49.988Z,23.24
2022-08-17T11:11:16.333Z,23.47
2022-08-17T11:13:42.611Z,23.65
2022-08-17T11:16:08.817Z,23.90
2022-08-17T11:18:34.982Z,24.19
2022-08-17T11:21:01.144Z,24.44
2022-08-17T11:23:27.370Z,24.82
2022-08-17T11:25:53.621Z,25.05
2022-08-17T11:28:19.826Z,25.32
2022-08-17T11:30:46.042Z,25.56
2022-08-17T11:33:12.314Z,25.85
2022-08-17T11:35:38.503Z,25.92
2022-08-17T11:38:04.739Z,25.89
2022-08-17T11:40:31.439Z,25.96
2022-08-17T11:42:57.615Z,25.86
2022-08-17T11:45:32.566Z,25.73
2022-08-17T11:48:26.080Z,25.59
2022-08-17T11:50:45.303Z,25.68
2022-08-17T11:53:11.530Z,25.75
2022-08-17T11:55:42.998Z,25.72
2022-08-17T11:58:11.186Z,25.76
2022-08-17T12:00:37.419Z,25.79
2022-08-17T12:03:03.772Z,25.78
2022-08-17T12:05:30.095Z,25.72
2022-08-17T12:07:56.285Z,25.76
2022-08-17T12:10:22.452Z,25.77
2022-08-17T12:12:48.673Z,25.67
2022-08-17T12:17:59.047Z,25.74
2022-08-17T12:20:25.437Z,25.98
2022-08-17T12:22:51.640Z,26.15
2022-08-17T12:25:17.832Z,26.13
2022-08-17T12:28:04.910Z,25.96
2022-08-17T12:30:30.282Z,25.99
2022-08-17T12:32:56.459Z,25.97
2022-08-17T12:35:22.714Z,26.01
2022-08-17T12:37:49.173Z,26.00
2022-08-17T12:40:15.593Z,26.05
2022-08-17T12:42:42.152Z,26.03
2022-08-17T12:45:08.397Z,25.82
2022-08-17T12:47:34.666Z,25.69
2022-08-17T12:50:00.980Z,25.53
2022-08-17T12:52:27.283Z,25.46
2022-08-17T12:54:53.559Z,25.46
2022-08-17T12:57:19.750Z,25.58
2022-08-17T12:59:46.028Z,25.67
2022-08-17T13:02:12.391Z,25.79
2022-08-17T13:04:38.626Z,25.99
2022-08-17T13:07:04.834Z,26.17
2022-08-17T13:09:40.069Z,26.20
2022-08-17T13:12:07.772Z,26.48
2022-08-17T13:14:34.269Z,26.86
2022-08-17T13:17:00.557Z,27.02
2022-08-17T13:19:39.811Z,26.99
2022-08-17T13:22:08.559Z,27.01
2022-08-17T13:24:38.167Z,27.17
2022-08-17T13:27:07.806Z,27.34
2022-08-17T13:29:34.624Z,27.39
2022-08-17T13:32:04.965Z,27.55
2022-08-17T13:34:34.154Z,27.88
2022-08-17T13:37:04.966Z,28.17
2022-08-17T13:39:34.405Z,28.29
2022-08-17T13:42:00.584Z,28.66
2022-08-17T13:44:26.821Z,28.73
2022-08-17T13:46:56.976Z,29.13
2022-08-17T13:49:23.650Z,29.34
2022-08-17T13:51:49.915Z,29.33
2022-08-17T13:54:16.185Z,29.28
2022-08-17T13:56:42.455Z,29.13
2022-08-17T13:59:08.721Z,28.97
2022-08-17T14:01:34.969Z,29.10
2022-08-17T14:04:01.218Z,29.22
2022-08-17T14:06:51.765Z,29.52
2022-08-17T14:09:13.752Z,29.75
2022-08-17T14:11:40.233Z,29.74
2022-08-17T14:14:06.777Z,29.49
2022-08-17T14:16:33.001Z,29.42
2022-08-17T14:18:59.232Z,29.46
2022-08-17T14:21:25.440Z,29.65
2022-08-17T14:23:54.771Z,29.78
2022-08-17T14:26:21.270Z,29.96
2022-08-17T14:28:56.317Z,30.04
2022-08-17T14:31:22.990Z,29.76
2022-08-17T14:33:49.201Z,29.84
2022-08-17T14:36:15.422Z,29.92
2022-08-17T14:38:41.622Z,29.79
2022-08-17T14:41:07.903Z,29.96
2022-08-17T14:43:34.441Z,30.00
2022-08-17T14:46:00.645Z,30.31
2022-08-17T14:48:28.238Z,30.48
2022-08-17T14:50:54.890Z,30.69
2022-08-17T14:53:21.181Z,30.67
2022-08-17T14:55:49.710Z,30.78
2022-08-17T14:58:15.991Z,30.72
2022-08-17T15:00:42.208Z,30.70
2022-08-17T15:03:08.506Z,30.86
2022-08-17T15:05:34.721Z,30.88
2022-08-17T15:08:00.968Z,31.06
2022-08-17T15:10:27.231Z,30.58
2022-08-17T15:12:53.569Z,30.54
2022-08-17T15:15:19.783Z,30.33
2022-08-17T15:17:46.259Z,30.45
2022-08-17T15:20:14.825Z,30.45
2022-08-17T15:22:41.496Z,30.81
2022-08-17T15:25:07.729Z,30.93
2022-08-17T15:27:33.984Z,30.89
2022-08-17T15:30:00.221Z,30.76
2022-08-17T15:32:26.470Z,30.66
2022-08-17T15:34:52.765Z,30.57
2022-08-17T15:37:19.077Z,30.27
2022-08-17T15:39:46.571Z,30.05
2022-08-17T15:42:12.923Z,29.81
2022-08-17T15:44:40.238Z,29.54
2022-08-17T15:47:06.524Z,29.44
2022-08-17T15:49:34.747Z,29.30
2022-08-17T15:52:01.045Z,29.18
2022-08-17T15:54:33.522Z,29.06
2022-08-17T15:57:00.996Z,29.08
2022-08-17T15:59:27.341Z,29.01
2022-08-17T16:03:15.378Z,29.06
2022-08-17T16:04:40.419Z,28.99
2022-08-17T16:07:10.298Z,28.85
2022-08-17T16:09:36.717Z,28.69
2022-08-17T16:12:02.971Z,28.79
2022-08-17T16:14:33.638Z,28.78
2022-08-17T16:17:01.518Z,28.62
2022-08-17T16:19:27.737Z,28.54
2022-08-17T16:21:53.967Z,28.47
2022-08-17T16:24:20.186Z,28.50
2022-08-17T16:26:46.414Z,28.50
2022-08-17T16:29:12.640Z,28.47
2022-08-17T16:31:38.940Z,28.39
2022-08-17T16:34:16.731Z,28.28
2022-08-17T16:36:51.728Z,28.16
2022-08-17T16:39:22.042Z,28.09
2022-08-17T16:41:48.246Z,28.02
2022-08-17T16:44:15.352Z,28.00
2022-08-17T16:46:45.868Z,27.94
2022-08-17T16:49:12.536Z,27.83
2022-08-17T16:51:55.990Z,27.84
2022-08-17T16:54:22.221Z,27.85
2022-08-17T16:56:48.423Z,27.83
2022-08-17T16:59:39.424Z,27.75
2022-08-17T17:02:00.892Z,27.63
2022-08-17T17:04:27.166Z,27.56
2022-08-17T17:06:53.403Z,27.44
2022-08-17T17:09:19.654Z,27.31
2022-08-17T17:11:45.903Z,27.18
2022-08-17T17:14:12.131Z,27.24
2022-08-17T17:16:39.999Z,27.10
2022-08-17T17:19:10.413Z,27.16
2022-08-17T17:21:36.641Z,27.03
2022-08-17T17:24:02.893Z,26.98
2022-08-17T17:26:29.254Z,26.93
2022-08-17T17:28:55.464Z,26.82
2022-08-17T17:31:21.982Z,26.76
2022-08-17T17:33:48.218Z,26.68
2022-08-17T17:36:14.430Z,26.63
2022-08-17T17:38:40.714Z,26.57
2022-08-17T17:41:26.479Z,26.53
2022-08-17T17:43:52.881Z,26.43
2022-08-17T17:46:28.554Z,26.36
2022-08-17T17:48:55.452Z,26.28
2022-08-17T17:51:55.722Z,26.29
2022-08-17T17:54:11.274Z,26.20
2022-08-17T17:56:44.060Z,26.15
2022-08-17T17:59:12.645Z,26.11
2022-08-17T18:01:39.370Z,26.08
2022-08-17T18:04:17.060Z,25.99
2022-08-17T18:06:47.298Z,25.87
2022-08-17T18:09:15.481Z,25.80
2022-08-17T18:11:51.380Z,25.72
2022-08-17T18:14:18.005Z,25.61
2022-08-17T18:16:44.187Z,25.51
2022-08-17T18:19:10.369Z,25.47
2022-08-17T18:21:36.599Z,25.40
2022-08-17T18:24:02.809Z,25.31
2022-08-17T18:26:29.007Z,25.20
2022-08-17T18:28:58.334Z,25.15
2022-08-17T18:31:24.513Z,25.06
2022-08-17T18:33:50.790Z,24.90
2022-08-17T18:36:16.987Z,24.76
2022-08-17T18:38:43.214Z,24.67
2022-08-17T18:41:09.367Z,24.62
2022-08-17T18:43:43.757Z,24.62
2022-08-17T18:46:28.109Z,24.55
2022-08-17T18:48:55.542Z,24.46
2022-08-17T18:51:40.267Z,24.42
2022-08-17T18:54:08.803Z,24.38
2022-08-17T18:56:35.018Z,24.35
2022-08-17T18:59:01.267Z,24.30
2022-08-17T19:01:41.735Z,24.18
2022-08-17T19:04:13.785Z,24.11
2022-08-17T19:06:40.038Z,23.92
2022-08-17T19:09:06.315Z,23.89
2022-08-17T19:19:30.763Z,23.52
2022-08-17T19:21:58.309Z,23.46
2022-08-17T19:24:34.526Z,23.49
2022-08-17T19:27:01.304Z,23.45
2022-08-17T19:32:13.829Z,23.46
2022-08-17T19:34:40.174Z,23.41
2022-08-17T19:37:06.412Z,23.43
2022-08-17T19:39:38.572Z,23.44
2022-08-17T19:42:04.957Z,23.42
2022-08-17T19:44:31.323Z,23.41
2022-08-17T19:47:00.985Z,23.37
2022-08-17T19:49:33.497Z,23.34
2022-08-17T19:52:09.160Z,23.29
2022-08-17T19:54:36.609Z,23.15
2022-08-17T19:57:02.852Z,23.01
2022-08-17T19:59:29.175Z,22.98
2022-08-17T20:02:02.096Z,22.89
2022-08-17T20:04:31.825Z,22.88
2022-08-17T20:06:59.032Z,22.78
2022-08-17T20:09:25.285Z,22.67
2022-08-17T20:11:59.712Z,22.63
2022-08-17T20:14:25.919Z,22.60
2022-08-17T20:16:52.139Z,22.51
2022-08-17T20:19:18.668Z,22.45
2022-08-17T20:21:49.138Z,22.37
2022-08-17T20:24:15.395Z,22.25
2022-08-17T20:26:42.718Z,22.19
2022-08-17T20:29:37.817Z,22.12
2022-08-17T20:32:09.049Z,22.02
2022-08-17T20:34:37.480Z,21.93
2022-08-17T20:37:04.373Z,21.85
2022-08-17T20:39:34.765Z,21.86
2022-08-17T20:42:31.380Z,21.87
2022-08-17T20:44:52.170Z,21.86
2022-08-17T20:47:18.358Z,21.76
2022-08-17T20:49:44.559Z,21.69
2022-08-17T20:52:10.736Z,21.54
2022-08-17T20:54:36.892Z,21.59
2022-08-17T20:57:06.185Z,21.54
2022-08-17T20:59:40.409Z,21.53
2022-08-17T21:02:19.106Z,21.33
2022-08-17T21:04:45.574Z,21.34
2022-08-17T21:07:11.799Z,21.34
2022-08-17T21:09:38.053Z,21.33
2022-08-17T21:12:05.652Z,21.38
2022-08-17T21:14:31.993Z,21.36
2022-08-17T21:16:58.203Z,21.34
2022-08-17T21:19:24.387Z,21.32
2022-08-17T21:21:50.546Z,21.30
2022-08-17T21:24:16.737Z,21.23
2022-08-17T21:26:50.444Z,21.21
2022-08-17T21:29:31.608Z,21.15
2022-08-17T21:31:59.187Z,21.09
2022-08-17T21:34:25.412Z,21.06
2022-08-17T21:36:51.603Z,21.14
2022-08-17T21:39:18.221Z,21.10
2022-08-17T21:41:49.424Z,21.06
2022-08-17T21:44:15.611Z,21.02
2022-08-17T21:46:41.784Z,21.00
2022-08-17T21:49:13.954Z,21.02
2022-08-17T21:51:40.593Z,21.03
2022-08-17T21:54:06.769Z,21.01
2022-08-17T21:56:34.606Z,20.95
2022-08-17T21:59:00.805Z,20.94
2022-08-17T22:01:27.073Z,20.89
2022-08-17T22:03:53.347Z,20.92
2022-08-17T22:06:19.543Z,20.90
2022-08-17T22:08:45.701Z,20.84
2022-08-17T22:11:11.887Z,20.81
2022-08-17T22:13:38.095Z,20.69
2022-08-17T22:16:04.275Z,20.56
2022-08-17T22:18:41.970Z,20.56
2022-08-17T22:21:08.144Z,20.52
2022-08-17T22:23:34.348Z,20.55
2022-08-17T22:26:00.522Z,20.58
2022-08-17T22:28:26.715Z,20.52
2022-08-17T22:30:52.877Z,20.50
2022-08-17T22:33:19.055Z,20.49
2022-08-17T22:35:45.246Z,20.46
2022-08-17T22:38:11.503Z,20.59
2022-08-17T22:40:37.677Z,20.68
2022-08-17T22:43:03.825Z,20.73
2022-08-17T22:45:30.233Z,20.70
2022-08-17T22:47:56.408Z,20.82
2022-08-17T22:50:22.614Z,20.90
2022-08-17T22:52:48.762Z,21.04
2022-08-17T22:55:14.929Z,21.19
2022-08-17T22:57:41.142Z,21.38
2022-08-17T23:00:07.318Z,21.57
2022-08-17T23:02:33.607Z,21.68
2022-08-17T23:04:59.879Z,21.74
2022-08-17T23:07:26.070Z,21.92
2022-08-17T23:09:52.259Z,22.02
2022-08-17T23:12:18.423Z,22.12
2022-08-17T23:14:44.605Z,22.27
2022-08-17T23:17:10.938Z,22.31
2022-08-17T23:19:37.133Z,22.34
2022-08-17T23:22:03.305Z,22.37
2022-08-17T23:24:29.493Z,22.48
2022-08-17T23:26:55.712Z,22.53
2022-08-17T23:29:21.914Z,22.60
2022-08-17T23:31:48.148Z,22.68
2022-08-17T23:34:14.343Z,22.77
2022-08-17T23:36:40.499Z,22.86
2022-08-17T23:39:06.675Z,22.84
2022-08-17T23:41:32.837Z,22.79
2022-08-17T23:43:59.011Z,22.83
2022-08-17T23:46:25.227Z,22.86
2022-08-17T23:48:51.514Z,22.84
2022-08-17T23:51:17.735Z,22.74
2022-08-17T23:53:43.937Z,22.73
2022-08-17T23:56:11.325Z,22.62
2022-08-17T23:58:37.805Z,22.68
